Time;durP1;ratioP1;P1;durP2;ratioP2;P2;SDS_P1;SDS_P2;PMS_P1;PMS_P2;Temp;Humidity;BMP_temperature;BMP_pressure;BME280_temperature;BME280_humidity;BME280_pressure;Samples;Min_cycle;Max_cycle;Signal;HPM_P1;HPM_P2
2023/07/12 00:00:29;;;;;;;0.65;0.65;;;22.60;74.60;;;;;;5066141;28;20064;-60
2023/07/12 00:02:58;;;;;;;1.75;0.70;;;22.60;74.70;;;;;;5069873;28;20063;-60
2023/07/12 00:05:28;;;;;;;0.57;0.57;;;22.60;74.60;;;;;;5075328;28;20036;-60
2023/07/12 00:07:54;;;;;;;0.75;0.57;;;22.60;74.70;;;;;;5075196;28;20078;-60
2023/07/12 00:10:27;;;;;;;0.70;0.60;;;22.60;74.90;;;;;;5070564;28;20027;-60
2023/07/12 00:12:53;;;;;;;0.38;0.38;;;22.50;74.90;;;;;;5072748;28;20502;-60
2023/07/12 00:15:24;;;;;;;0.57;0.50;;;22.50;74.90;;;;;;5068616;28;20090;-60
2023/07/12 00:17:52;;;;;;;0.40;0.40;;;22.60;74.80;;;;;;5067135;28;20090;-60
2023/07/12 00:20:22;;;;;;;1.88;0.80;;;22.50;74.70;;;;;;5079029;28;20126;-60
2023/07/12 00:22:48;;;;;;;0.93;0.80;;;22.50;74.60;;;;;;5079004;28;20394;-60
2023/07/12 00:25:15;;;;;;;2.35;0.82;;;22.40;74.70;;;;;;5071802;28;21187;-60
2023/07/12 00:27:41;;;;;;;1.25;1.15;;;22.30;74.80;;;;;;5081313;28;20386;-60
2023/07/12 00:30:14;;;;;;;0.50;0.45;;;22.20;75.00;;;;;;5071969;28;20099;-60
2023/07/12 00:32:40;;;;;;;1.23;0.85;;;22.20;75.20;;;;;;5070109;28;20039;-60
2023/07/12 00:35:06;;;;;;;0.60;0.60;;;22.20;75.20;;;;;;5071645;28;20028;-60
2023/07/12 00:37:31;;;;;;;0.60;0.60;;;22.30;75.20;;;;;;5077704;28;20043;-60
2023/07/12 00:39:57;;;;;;;0.55;0.38;;;22.30;75.20;;;;;;5074210;28;20029;-60
2023/07/12 00:42:31;;;;;;;0.82;0.40;;;22.30;75.20;;;;;;5069157;28;20036;-60
2023/07/12 00:44:57;;;;;;;0.60;0.45;;;22.30;75.10;;;;;;5070673;28;20021;-60
2023/07/12 00:47:24;;;;;;;0.40;0.40;;;22.20;75.20;;;;;;5072147;28;20384;-61
2023/07/12 00:49:51;;;;;;;1.00;0.38;;;22.20;75.10;;;;;;5069752;28;20032;-60
2023/07/12 00:52:19;;;;;;;0.40;0.40;;;22.20;75.00;;;;;;5063807;28;20045;-60
2023/07/12 00:54:53;;;;;;;0.82;0.50;;;22.20;75.00;;;;;;5081053;28;20024;-60
2023/07/12 00:57:23;;;;;;;1.33;0.90;;;22.20;74.90;;;;;;5077569;28;20088;-60
2023/07/12 00:59:52;;;;;;;4.07;1.02;;;22.10;74.90;;;;;;5073476;28;20033;-63
2023/07/12 01:02:22;;;;;;;0.60;0.52;;;22.10;75.00;;;;;;5075541;28;20028;-63
2023/07/12 01:04:52;;;;;;;0.45;0.30;;;22.00;75.20;;;;;;5077370;28;20040;-60
2023/07/12 01:07:21;;;;;;;1.13;0.80;;;21.90;75.30;;;;;;5079743;28;20036;-62
2023/07/12 01:09:46;;;;;;;1.27;0.50;;;21.90;75.50;;;;;;5073124;28;20020;-60
2023/07/12 01:12:13;;;;;;;0.63;0.60;;;21.90;75.50;;;;;;5080562;28;21079;-60
2023/07/12 01:14:41;;;;;;;0.73;0.50;;;21.80;75.70;;;;;;5074504;28;20033;-63
2023/07/12 01:17:08;;;;;;;2.42;0.68;;;21.70;75.60;;;;;;5069532;28;20024;-63
2023/07/12 01:19:36;;;;;;;1.60;0.63;;;21.60;75.80;;;;;;5075185;28;20445;-64
2023/07/12 01:22:03;;;;;;;0.70;0.70;;;21.50;76.00;;;;;;5077037;28;20169;-65
2023/07/12 01:24:31;;;;;;;0.85;0.75;;;21.40;76.40;;;;;;5068655;28;20475;-64
2023/07/12 01:27:01;;;;;;;0.40;0.40;;;21.20;76.60;;;;;;5076782;28;20016;-64
2023/07/12 01:29:27;;;;;;;0.77;0.70;;;21.20;76.70;;;;;;5068201;28;20024;-64
2023/07/12 01:31:53;;;;;;;1.98;0.93;;;21.20;76.60;;;;;;5077021;28;20021;-64
2023/07/12 01:34:21;;;;;;;0.45;0.45;;;21.20;76.70;;;;;;5079693;28;20032;-64
2023/07/12 01:36:46;;;;;;;1.00;0.85;;;21.10;76.80;;;;;;5076838;28;20127;-64
2023/07/12 01:39:12;;;;;;;0.90;0.80;;;21.00;76.80;;;;;;5078049;28;20123;-64
2023/07/12 01:41:38;;;;;;;3.08;1.23;;;20.90;76.90;;;;;;5065686;28;20158;-60
2023/07/12 01:44:05;;;;;;;0.63;0.60;;;20.90;76.80;;;;;;5072000;28;20479;-60
2023/07/12 01:46:31;;;;;;;1.50;0.60;;;20.90;76.70;;;;;;5069957;28;20025;-61
2023/07/12 01:48:57;;;;;;;1.42;0.77;;;20.90;76.70;;;;;;5072147;28;20028;-61
2023/07/12 01:51:23;;;;;;;1.73;0.60;;;20.90;76.70;;;;;;5071353;28;20044;-60
2023/07/12 01:53:49;;;;;;;3.25;0.68;;;20.90;76.60;;;;;;5070961;28;20032;-61
2023/07/12 01:56:16;;;;;;;1.67;0.70;;;20.90;76.40;;;;;;5074288;28;20033;-61
2023/07/12 01:58:42;;;;;;;0.55;0.52;;;20.90;76.40;;;;;;5072196;28;20056;-60
2023/07/12 02:01:08;;;;;;;0.55;0.50;;;20.90;76.50;;;;;;5085133;28;20071;-61
2023/07/12 02:03:34;;;;;;;1.83;0.50;;;20.90;76.40;;;;;;5075553;28;20048;-60
2023/07/12 02:06:00;;;;;;;3.08;1.20;;;20.90;76.40;;;;;;5087777;28;20098;-61
2023/07/12 02:08:26;;;;;;;1.55;0.90;;;20.90;76.30;;;;;;5081233;28;20032;-61
2023/07/12 02:10:52;;;;;;;0.73;0.40;;;20.80;76.30;;;;;;5076198;28;20383;-60
2023/07/12 02:13:19;;;;;;;1.10;0.80;;;20.80;76.50;;;;;;5072782;28;20391;-61
2023/07/12 02:15:45;;;;;;;0.75;0.60;;;20.80;76.60;;;;;;5069919;28;20024;-60
2023/07/12 02:18:12;;;;;;;2.08;1.02;;;20.80;76.60;;;;;;5072066;28;20028;-61
2023/07/12 02:20:39;;;;;;;2.83;0.82;;;20.80;76.60;;;;;;5076404;28;20028;-61
2023/07/12 02:23:05;;;;;;;0.68;0.68;;;20.80;76.50;;;;;;5072104;28;20498;-61
2023/07/12 02:25:31;;;;;;;1.58;0.60;;;20.80;76.50;;;;;;5077866;28;20017;-61
2023/07/12 02:27:57;;;;;;;2.92;0.90;;;20.90;76.50;;;;;;5070440;28;20044;-64
2023/07/12 02:30:26;;;;;;;0.50;0.50;;;20.90;76.40;;;;;;5078138;28;20107;-64
2023/07/12 02:32:52;;;;;;;0.98;0.73;;;20.90;76.30;;;;;;5071768;28;20203;-64
2023/07/12 02:35:19;;;;;;;1.98;0.70;;;20.90;76.40;;;;;;5074141;28;20210;-64
2023/07/12 02:37:46;;;;;;;1.15;1.02;;;20.80;76.50;;;;;;5077310;28;20025;-64
2023/07/12 02:40:13;;;;;;;2.55;0.90;;;20.80;76.70;;;;;;5081103;28;20503;-64
2023/07/12 02:42:39;;;;;;;4.43;1.27;;;20.80;76.60;;;;;;5078102;28;20123;-64
2023/07/12 02:45:06;;;;;;;5.43;1.42;;;20.90;76.70;;;;;;5078655;28;20542;-64
2023/07/12 02:47:31;;;;;;;2.63;0.70;;;20.80;76.90;;;;;;5075543;28;20096;-64
2023/07/12 02:49:57;;;;;;;3.00;0.88;;;20.70;77.10;;;;;;5070525;28;20023;-64
2023/07/12 02:52:23;;;;;;;1.48;0.88;;;20.60;77.30;;;;;;5066349;28;20059;-64
2023/07/12 02:54:49;;;;;;;1.92;0.68;;;20.50;77.30;;;;;;5071525;28;20098;-64
2023/07/12 02:57:16;;;;;;;1.95;0.50;;;20.50;77.30;;;;;;5074753;28;20557;-64
2023/07/12 02:59:42;;;;;;;2.63;0.80;;;20.50;77.20;;;;;;5062021;28;20502;-65
2023/07/12 03:02:09;;;;;;;1.83;0.60;;;20.50;76.90;;;;;;5072202;28;20048;-66
2023/07/12 03:04:35;;;;;;;1.17;0.50;;;20.50;76.80;;;;;;5077520;28;20039;-66
2023/07/12 03:07:00;;;;;;;1.00;0.88;;;20.50;76.80;;;;;;5076589;28;20467;-65
2023/07/12 03:09:26;;;;;;;1.52;0.70;;;20.50;76.90;;;;;;5075032;28;20024;-65
2023/07/12 03:11:52;;;;;;;2.75;0.75;;;20.50;77.00;;;;;;5078019;28;20040;-62
2023/07/12 03:14:19;;;;;;;0.55;0.55;;;20.50;76.80;;;;;;5080926;28;20147;-61
2023/07/12 03:16:46;;;;;;;0.45;0.40;;;20.50;76.90;;;;;;5069072;28;20033;-61
2023/07/12 03:19:12;;;;;;;0.93;0.40;;;20.50;76.50;;;;;;5077457;28;20035;-63
2023/07/12 03:21:39;;;;;;;0.60;0.60;;;20.50;76.60;;;;;;5075981;28;20041;-63
2023/07/12 03:24:05;;;;;;;0.50;0.50;;;20.50;76.60;;;;;;5075824;28;20460;-62
2023/07/12 03:26:32;;;;;;;1.00;0.60;;;20.50;76.70;;;;;;5076715;28;20036;-63
2023/07/12 03:28:58;;;;;;;0.50;0.50;;;20.40;76.70;;;;;;5080420;28;20024;-63
2023/07/12 03:31:25;;;;;;;0.70;0.70;;;20.40;76.90;;;;;;5075630;28;20052;-62
2023/07/12 03:33:51;;;;;;;0.30;0.30;;;20.40;76.90;;;;;;5072292;28;20032;-62
2023/07/12 03:36:19;;;;;;;1.67;0.63;;;20.40;77.10;;;;;;5078021;28;20470;-62
2023/07/12 03:38:45;;;;;;;1.38;0.60;;;20.40;77.70;;;;;;5078808;28;20038;-62
2023/07/12 03:41:14;;;;;;;0.70;0.65;;;20.30;77.30;;;;;;5068060;28;20036;-62
2023/07/12 03:43:40;;;;;;;1.42;0.95;;;20.20;77.60;;;;;;5068394;28;20032;-64
2023/07/12 03:46:06;;;;;;;1.83;0.98;;;20.20;77.70;;;;;;5076494;28;20035;-63
2023/07/12 03:48:32;;;;;;;0.90;0.60;;;20.10;78.40;;;;;;5074651;28;20120;-63
2023/07/12 03:50:59;;;;;;;1.23;0.70;;;20.10;77.80;;;;;;5070581;28;20031;-65
2023/07/12 03:53:26;;;;;;;1.08;0.75;;;20.10;77.80;;;;;;5074855;28;20017;-65
2023/07/12 03:55:52;;;;;;;1.38;0.65;;;20.10;77.80;;;;;;5075625;28;21423;-64
2023/07/12 03:58:21;;;;;;;1.52;0.80;;;20.10;77.80;;;;;;5068915;28;20093;-62
2023/07/12 04:00:49;;;;;;;0.90;0.55;;;20.10;77.80;;;;;;5074176;28;20085;-62
2023/07/12 04:03:17;;;;;;;0.98;0.82;;;19.90;77.80;;;;;;5078538;28;20056;-62
2023/07/12 04:05:43;;;;;;;1.38;1.08;;;19.90;77.90;;;;;;5075825;28;20552;-62
2023/07/12 04:08:11;;;;;;;0.95;0.60;;;19.80;78.00;;;;;;5070762;28;20112;-62
2023/07/12 04:10:38;;;;;;;2.75;1.25;;;19.80;78.30;;;;;;5074205;28;20056;-62
2023/07/12 04:13:04;;;;;;;0.50;0.50;;;19.70;78.40;;;;;;5075739;28;20020;-65
2023/07/12 04:15:29;;;;;;;3.70;1.52;;;19.70;78.30;;;;;;5072558;28;20116;-62
2023/07/12 04:17:55;;;;;;;2.47;0.80;;;19.60;78.40;;;;;;5076390;28;20115;-63
2023/07/12 04:20:21;;;;;;;2.40;1.15;;;19.50;78.80;;;;;;5078852;28;20032;-65
2023/07/12 04:22:51;;;;;;;0.98;0.93;;;19.50;78.90;;;;;;5075234;28;20028;-65
2023/07/12 04:25:18;;;;;;;1.80;1.08;;;19.60;78.90;;;;;;5072094;28;20040;-66
2023/07/12 04:27:44;;;;;;;5.38;1.00;;;19.60;78.70;;;;;;5072951;28;20025;-65
2023/07/12 04:30:12;;;;;;;1.75;0.70;;;19.60;78.60;;;;;;5077659;28;20016;-65
2023/07/12 04:32:38;;;;;;;3.42;1.23;;;19.70;78.50;;;;;;5074956;28;20063;-65
2023/07/12 04:35:04;;;;;;;0.70;0.70;;;19.70;78.50;;;;;;5074388;28;20518;-65
2023/07/12 04:37:30;;;;;;;1.40;1.30;;;19.70;78.40;;;;;;5074558;28;20059;-65
2023/07/12 04:39:56;;;;;;;1.23;1.13;;;19.70;78.40;;;;;;5077227;28;20032;-65
2023/07/12 04:42:22;;;;;;;4.78;1.80;;;19.80;78.30;;;;;;5076119;28;20097;-65
2023/07/12 04:44:48;;;;;;;2.75;1.17;;;19.80;78.10;;;;;;5075147;28;20569;-65
2023/07/12 04:47:17;;;;;;;2.75;1.23;;;19.70;78.10;;;;;;5071463;28;21438;-65
2023/07/12 04:49:43;;;;;;;2.40;1.52;;;19.70;78.10;;;;;;5068805;28;20032;-65
2023/07/12 04:52:11;;;;;;;2.22;1.50;;;19.70;78.30;;;;;;5073520;28;20020;-65
2023/07/12 04:54:40;;;;;;;2.80;1.70;;;19.70;78.30;;;;;;5067307;28;20043;-65
2023/07/12 04:57:07;;;;;;;6.00;2.35;;;19.60;78.40;;;;;;5068107;28;20025;-65
2023/07/12 04:59:33;;;;;;;3.33;2.03;;;19.60;78.50;;;;;;5068841;28;20059;-65
2023/07/12 05:01:58;;;;;;;2.47;1.67;;;19.50;78.70;;;;;;5071512;28;20097;-66
2023/07/12 05:04:24;;;;;;;2.50;1.65;;;19.50;78.80;;;;;;5074490;28;20040;-66
2023/07/12 05:06:51;;;;;;;3.80;2.58;;;19.50;78.60;;;;;;5066899;28;20080;-66
2023/07/12 05:09:18;;;;;;;5.63;2.80;;;19.50;78.70;;;;;;5073471;28;20039;-65
2023/07/12 05:11:44;;;;;;;3.95;2.05;;;19.60;78.70;;;;;;5068815;28;20543;-62
2023/07/12 05:14:09;;;;;;;3.05;2.17;;;19.60;78.70;;;;;;5074877;28;20111;-62
2023/07/12 05:16:35;;;;;;;4.63;2.75;;;19.50;78.60;;;;;;5072063;28;20040;-62
2023/07/12 05:19:01;;;;;;;7.68;3.28;;;19.50;78.70;;;;;;5072007;28;20036;-63
2023/07/12 05:21:26;;;;;;;3.72;2.33;;;19.50;78.70;;;;;;5073550;28;20036;-62
2023/07/12 05:23:52;;;;;;;5.82;2.30;;;19.50;78.60;;;;;;5072905;28;20049;-62
2023/07/12 05:26:17;;;;;;;4.32;2.20;;;19.50;78.50;;;;;;5071452;28;20040;-62
2023/07/12 05:28:43;;;;;;;4.00;2.42;;;19.40;78.80;;;;;;5079733;28;20020;-62
2023/07/12 05:31:12;;;;;;;3.65;2.13;;;19.40;78.90;;;;;;5079001;28;20032;-62
2023/07/12 05:33:43;;;;;;;6.53;1.88;;;19.50;78.90;;;;;;5080718;28;20435;-62
2023/07/12 05:36:09;;;;;;;5.10;2.50;;;19.50;78.80;;;;;;5080407;28;20093;-62
2023/07/12 05:38:35;;;;;;;5.13;2.80;;;19.60;78.80;;;;;;5077402;28;20035;-62
2023/07/12 05:41:01;;;;;;;6.03;3.15;;;19.60;78.90;;;;;;5071475;28;20033;-62
2023/07/12 05:43:28;;;;;;;7.22;2.95;;;19.60;78.90;;;;;;5083034;28;20513;-62
2023/07/12 05:45:56;;;;;;;2.92;1.88;;;19.60;78.80;;;;;;5071889;28;20120;-62
2023/07/12 05:48:23;;;;;;;3.92;2.17;;;19.70;78.70;;;;;;5073150;28;20419;-62
2023/07/12 05:50:53;;;;;;;3.00;2.08;;;19.70;78.40;;;;;;5071649;28;20032;-62
2023/07/12 05:53:19;;;;;;;6.47;2.20;;;19.80;78.20;;;;;;5075644;28;20043;-62
2023/07/12 05:55:45;;;;;;;2.67;1.92;;;19.80;78.10;;;;;;5073039;28;20043;-62
2023/07/12 05:58:11;;;;;;;2.00;1.80;;;19.80;78.00;;;;;;5075180;28;20137;-62
2023/07/12 06:00:37;;;;;;;5.53;2.55;;;19.90;78.10;;;;;;5078158;28;20043;-62
2023/07/12 06:03:04;;;;;;;3.40;1.88;;;19.90;77.80;;;;;;5078992;28;20036;-62
2023/07/12 06:05:30;;;;;;;4.68;2.00;;;19.90;77.70;;;;;;5082577;28;20028;-62
2023/07/12 06:07:56;;;;;;;2.40;1.70;;;19.90;77.40;;;;;;5070744;28;20031;-62
2023/07/12 06:10:21;;;;;;;2.38;1.92;;;19.80;77.40;;;;;;5078559;28;20021;-62
2023/07/12 06:12:47;;;;;;;4.57;2.20;;;19.80;77.50;;;;;;5070326;28;20029;-62
2023/07/12 06:15:13;;;;;;;4.50;1.75;;;19.80;77.60;;;;;;5068834;28;20043;-62
2023/07/12 06:17:38;;;;;;;3.78;1.80;;;19.70;77.70;;;;;;5074246;28;20067;-62
2023/07/12 06:20:04;;;;;;;5.88;1.50;;;19.70;77.30;;;;;;5066073;28;20029;-62
2023/07/12 06:22:31;;;;;;;2.42;1.48;;;19.70;77.30;;;;;;5071848;28;20551;-63
2023/07/12 06:24:56;;;;;;;2.33;1.88;;;19.70;77.60;;;;;;5067028;28;20481;-62
2023/07/12 06:27:22;;;;;;;5.35;1.80;;;19.70;77.50;;;;;;5072624;28;20020;-62
2023/07/12 06:29:48;;;;;;;3.15;1.92;;;19.70;77.50;;;;;;5065133;28;20062;-62
2023/07/12 06:32:14;;;;;;;6.45;2.17;;;19.80;77.50;;;;;;5074770;28;20100;-62
2023/07/12 06:34:40;;;;;;;6.20;2.38;;;19.80;77.20;;;;;;5077897;28;20383;-62
2023/07/12 06:37:08;;;;;;;7.18;2.75;;;19.80;77.30;;;;;;5072724;28;20024;-62
2023/07/12 06:39:37;;;;;;;3.65;1.80;;;19.90;76.90;;;;;;5083628;28;20267;-62
2023/07/12 06:42:03;;;;;;;2.17;1.35;;;19.90;76.90;;;;;;5074766;28;20387;-62
2023/07/12 06:44:29;;;;;;;5.85;2.10;;;19.90;76.80;;;;;;5076323;28;20035;-62
2023/07/12 06:46:54;;;;;;;5.82;2.40;;;20.10;76.70;;;;;;5077738;28;20032;-61
2023/07/12 06:49:20;;;;;;;1.77;1.30;;;20.10;76.30;;;;;;5068389;28;20107;-62
2023/07/12 06:51:46;;;;;;;10.13;1.52;;;20.10;76.20;;;;;;5070408;28;20036;-61
2023/07/12 06:54:16;;;;;;;4.30;2.58;;;20.10;76.20;;;;;;5072970;28;20031;-62
2023/07/12 06:56:43;;;;;;;4.43;1.77;;;20.10;76.30;;;;;;5070681;28;20127;-62
2023/07/12 06:59:10;;;;;;;2.33;1.55;;;20.20;76.30;;;;;;5071439;28;20394;-62
2023/07/12 07:01:36;;;;;;;2.45;1.92;;;20.30;76.30;;;;;;5065367;28;20051;-62
2023/07/12 07:04:02;;;;;;;3.72;1.08;;;20.30;75.90;;;;;;5068865;28;20115;-62
2023/07/12 07:06:27;;;;;;;3.15;1.30;;;20.20;76.00;;;;;;5067795;28;20103;-60
2023/07/12 07:08:53;;;;;;;3.67;1.33;;;20.20;76.00;;;;;;5076410;28;20025;-59
2023/07/12 07:11:19;;;;;;;1.52;1.40;;;20.20;75.90;;;;;;5074716;28;20466;-58
2023/07/12 07:13:45;;;;;;;5.40;1.95;;;20.20;76.00;;;;;;5071876;28;20046;-59
2023/07/12 07:16:11;;;;;;;3.70;1.80;;;20.10;75.90;;;;;;5076747;28;20043;-59
2023/07/12 07:18:36;;;;;;;1.95;1.23;;;20.20;76.00;;;;;;5072012;28;20035;-60
2023/07/12 07:21:03;;;;;;;4.20;1.67;;;20.20;75.80;;;;;;5071592;28;20475;-62
2023/07/12 07:23:29;;;;;;;2.42;1.35;;;20.30;75.70;;;;;;5070582;28;20093;-63
2023/07/12 07:26:04;;;;;;;2.63;1.85;;;20.30;75.70;;;;;;5063162;28;20024;-62
2023/07/12 07:28:30;;;;;;;2.42;1.48;;;20.30;76.00;;;;;;5070474;28;20027;-62
2023/07/12 07:30:57;;;;;;;1.92;1.83;;;20.30;76.00;;;;;;5071239;28;20037;-61
2023/07/12 07:33:24;;;;;;;4.78;2.30;;;20.40;75.80;;;;;;5072347;28;20032;-60
2023/07/12 07:35:50;;;;;;;2.47;1.50;;;20.50;75.70;;;;;;5068207;28;20479;-63
2023/07/12 07:38:16;;;;;;;5.90;1.90;;;20.50;75.50;;;;;;5074403;28;20027;-63
2023/07/12 07:40:43;;;;;;;4.95;1.30;;;20.50;75.40;;;;;;5071023;28;20020;-63
2023/07/12 07:43:10;;;;;;;2.60;1.50;;;20.50;75.10;;;;;;5071859;28;20059;-63
2023/07/12 07:45:36;;;;;;;3.03;1.48;;;20.50;75.10;;;;;;5073802;28;20037;-62
2023/07/12 07:48:01;;;;;;;2.05;1.83;;;20.50;75.00;;;;;;5071497;28;20017;-63
2023/07/12 07:50:28;;;;;;;3.22;1.30;;;20.60;75.10;;;;;;5067574;28;20563;-63
2023/07/12 07:52:54;;;;;;;5.30;2.03;;;20.60;74.90;;;;;;5070985;28;20429;-64
2023/07/12 07:55:21;;;;;;;1.73;1.60;;;20.70;74.90;;;;;;5069685;28;20037;-64
2023/07/12 07:57:47;;;;;;;3.60;1.58;;;20.60;74.70;;;;;;5066180;28;20040;-63
2023/07/12 08:00:13;;;;;;;5.15;1.63;;;20.60;74.70;;;;;;5071323;28;20375;-64
2023/07/12 08:02:42;;;;;;;1.35;1.13;;;20.50;74.80;;;;;;5074189;28;20044;-64
2023/07/12 08:05:11;;;;;;;1.90;1.60;;;20.50;74.90;;;;;;5063037;28;20307;-64
2023/07/12 08:07:46;;;;;;;1.30;1.20;;;20.60;74.90;;;;;;5069769;28;20056;-62
2023/07/12 08:10:15;;;;;;;4.97;1.67;;;20.70;74.80;;;;;;5071063;28;20016;-62
2023/07/12 08:12:40;;;;;;;2.70;1.75;;;20.80;74.80;;;;;;5069992;28;20024;-60
2023/07/12 08:15:06;;;;;;;3.25;1.52;;;20.90;74.60;;;;;;5067541;28;20087;-62
2023/07/12 08:17:32;;;;;;;2.72;1.85;;;21.10;74.50;;;;;;5068348;28;20490;-59
2023/07/12 08:19:58;;;;;;;2.85;1.95;;;21.10;73.10;;;;;;5070510;28;20029;-60
2023/07/12 08:22:24;;;;;;;2.88;1.40;;;21.00;73.10;;;;;;5081173;28;20028;-60
2023/07/12 08:24:50;;;;;;;2.95;1.85;;;20.90;73.50;;;;;;5064516;28;20024;-60
2023/07/12 08:27:16;;;;;;;3.38;1.67;;;20.80;73.70;;;;;;5073724;28;20024;-61
2023/07/12 08:29:43;;;;;;;4.32;1.95;;;20.70;74.00;;;;;;5076948;28;20440;-62
2023/07/12 08:32:09;;;;;;;3.63;2.25;;;20.70;74.00;;;;;;5051223;28;20425;-62
2023/07/12 08:34:35;;;;;;;5.00;1.85;;;20.60;74.30;;;;;;5074772;28;20412;-61
2023/07/12 08:37:01;;;;;;;2.28;1.30;;;20.60;74.60;;;;;;5068814;28;20024;-62
2023/07/12 08:39:27;;;;;;;3.90;1.60;;;20.70;74.60;;;;;;5059787;28;20040;-63
2023/07/12 08:41:53;;;;;;;3.35;2.10;;;20.70;74.50;;;;;;5070531;28;20454;-64
2023/07/12 08:44:19;;;;;;;2.80;1.48;;;20.80;74.60;;;;;;5067482;28;20033;-64
2023/07/12 08:46:53;;;;;;;1.65;1.40;;;20.90;74.70;;;;;;5075442;28;20068;-64
2023/07/12 08:49:19;;;;;;;1.42;1.33;;;21.10;74.60;;;;;;5068424;28;20053;-64
2023/07/12 08:51:46;;;;;;;4.00;1.70;;;21.20;74.40;;;;;;5075282;28;20099;-64
2023/07/12 08:54:38;;;;;;;3.65;1.48;;;21.50;74.00;;;;;;5072087;28;20034;-59
2023/07/12 08:57:16;;;;;;;4.75;1.67;;;21.80;73.10;;;;;;5064487;28;20045;-64
2023/07/12 08:59:44;;;;;;;1.45;1.35;;;21.90;71.70;;;;;;5075854;28;20082;-63
2023/07/12 09:02:22;;;;;;;7.85;2.38;;;21.90;71.70;;;;;;5058130;28;20071;-61
2023/07/12 09:04:48;;;;;;;4.45;2.63;;;21.80;71.30;;;;;;5076264;28;20029;-63
2023/07/12 09:07:23;;;;;;;2.42;1.60;;;21.80;71.20;;;;;;5073527;28;20048;-64
2023/07/12 09:09:49;;;;;;;14.50;2.25;;;21.90;71.10;;;;;;5080893;28;20043;-62
2023/07/12 09:12:30;;;;;;;19.20;1.83;;;22.00;70.90;;;;;;5078064;28;20039;-63
2023/07/12 09:14:59;;;;;;;3.47;1.45;;;22.10;70.70;;;;;;5079360;28;20024;-64
2023/07/12 09:17:28;;;;;;;1.35;1.25;;;22.30;69.30;;;;;;5082862;28;20728;-62
2023/07/12 09:19:55;;;;;;;2.88;1.40;;;22.30;69.40;;;;;;5081765;28;20028;-62
2023/07/12 09:22:22;;;;;;;2.75;1.65;;;22.40;68.70;;;;;;5073368;28;20058;-62
2023/07/12 09:24:54;;;;;;;4.10;0.90;;;22.60;68.60;;;;;;5084800;28;20132;-62
2023/07/12 09:27:24;;;;;;;;;;;22.70;67.30;;;;;;5075907;28;20027;-62
2023/07/12 09:30:01;;;;;;;2.72;1.67;;;22.80;66.90;;;;;;5070868;28;19915;-62
2023/07/12 09:32:33;;;;;;;5.95;2.05;;;22.80;66.50;;;;;;5072189;28;20040;-62
2023/07/12 09:35:04;;;;;;;3.30;1.27;;;22.80;66.80;;;;;;5078383;28;20028;-62
2023/07/12 09:37:36;;;;;;;2.38;1.30;;;22.70;67.40;;;;;;5076261;28;20121;-62
2023/07/12 09:40:03;;;;;;;;;;;22.90;67.10;;;;;;5076233;28;20048;-62
2023/07/12 09:42:30;;;;;;;2.78;1.55;;;23.00;66.20;;;;;;5081624;28;19921;-63
2023/07/12 09:44:58;;;;;;;2.88;1.58;;;23.20;65.40;;;;;;5074522;28;20043;-63
2023/07/12 09:47:34;;;;;;;3.60;1.70;;;23.20;65.50;;;;;;5080433;28;20101;-62
2023/07/12 09:50:18;;;;;;;4.90;1.42;;;23.30;65.50;;;;;;5076469;28;20031;-62
2023/07/12 09:52:58;;;;;;;2.05;1.13;;;23.30;65.20;;;;;;5084883;28;20035;-62
2023/07/12 09:55:35;;;;;;;3.58;1.45;;;23.50;64.20;;;;;;5073705;28;20387;-63
2023/07/12 09:58:46;;;;;;;4.18;1.67;;;23.40;63.90;;;;;;5076413;28;20409;-62
2023/07/12 10:01:34;;;;;;;3.97;1.60;;;23.40;63.30;;;;;;5035706;28;20094;-63
2023/07/12 10:04:13;;;;;;;3.08;1.58;;;23.30;63.60;;;;;;5076137;28;20367;-63
2023/07/12 10:06:42;;;;;;;2.83;1.33;;;23.30;63.60;;;;;;5079099;28;20024;-60
2023/07/12 10:09:22;;;;;;;1.85;1.27;;;23.30;63.80;;;;;;5084505;28;20132;-63
2023/07/12 10:12:02;;;;;;;1.33;1.10;;;23.30;64.30;;;;;;5062517;28;20087;-63
2023/07/12 10:14:34;;;;;;;2.50;1.02;;;23.30;64.10;;;;;;5067781;28;20028;-59
2023/07/12 10:17:01;;;;;;;2.20;1.55;;;23.60;64.20;;;;;;5067102;28;20483;-60
2023/07/12 10:19:32;;;;;;;2.22;1.33;;;23.70;63.30;;;;;;5067724;28;20029;-61
2023/07/12 10:22:02;;;;;;;4.38;1.30;;;23.70;62.20;;;;;;5067192;28;20483;-64
2023/07/12 10:24:36;;;;;;;2.17;1.23;;;23.60;62.40;;;;;;5065373;28;20039;-63
2023/07/12 10:27:11;;;;;;;2.92;1.10;;;23.50;62.70;;;;;;5071350;28;20028;-64
2023/07/12 10:30:04;;;;;;;1.35;1.15;;;23.50;62.30;;;;;;5063253;28;20468;-64
2023/07/12 10:32:39;;;;;;;2.50;1.35;;;23.50;62.50;;;;;;5066757;28;20931;-63
2023/07/12 10:35:21;;;;;;;1.10;0.90;;;23.40;62.60;;;;;;5068323;28;20135;-63
2023/07/12 10:37:57;;;;;;;2.67;1.00;;;23.40;62.20;;;;;;5070538;28;20126;-63
2023/07/12 10:40:35;;;;;;;2.58;1.23;;;23.40;62.50;;;;;;5073171;28;20020;-60
2023/07/12 10:43:08;;;;;;;1.30;1.17;;;23.50;62.30;;;;;;5072831;28;20035;-60
2023/07/12 10:45:37;;;;;;;1.08;0.98;;;23.50;62.60;;;;;;5061013;28;20048;-63
2023/07/12 10:48:04;;;;;;;2.20;1.63;;;23.40;63.40;;;;;;5052442;28;20021;-63
2023/07/12 10:50:48;;;;;;;2.47;1.33;;;23.20;64.80;;;;;;5077746;28;20038;-63
2023/07/12 10:53:24;;;;;;;1.42;1.33;;;22.80;66.40;;;;;;5063313;28;20052;-61
2023/07/12 10:56:07;;;;;;;1.20;1.10;;;22.50;67.90;;;;;;5067206;28;20052;-61
2023/07/12 10:58:48;;;;;;;9.20;1.35;;;22.30;69.00;;;;;;5068680;28;20106;-61
2023/07/12 11:01:35;;;;;;;2.05;1.35;;;22.30;69.70;;;;;;5071111;28;20036;-61
2023/07/12 11:04:09;;;;;;;2.92;1.70;;;22.30;70.30;;;;;;5071992;28;20028;-60
2023/07/12 11:06:34;;;;;;;1.98;1.25;;;22.30;70.20;;;;;;5071663;28;20036;-63
2023/07/12 11:09:06;;;;;;;3.88;1.50;;;22.10;70.80;;;;;;5072863;28;20036;-63
2023/07/12 11:11:42;;;;;;;2.15;1.20;;;22.00;71.00;;;;;;5063247;28;20029;-63
2023/07/12 11:14:42;;;;;;;1.67;0.60;;;22.00;71.10;;;;;;5068984;28;20494;-60
2023/07/12 11:17:11;;;;;;;1.27;1.00;;;22.10;71.90;;;;;;5073776;28;20032;-60
2023/07/12 11:19:39;;;;;;;2.50;1.25;;;22.30;71.20;;;;;;5065640;28;20036;-60
2023/07/12 11:22:14;;;;;;;1.50;0.88;;;22.70;70.90;;;;;;5070680;28;20070;-60
2023/07/12 11:25:00;;;;;;;1.50;1.10;;;23.10;70.30;;;;;;5077831;28;20106;-60
2023/07/12 11:27:41;;;;;;;1.98;1.10;;;23.50;69.60;;;;;;5066889;28;20024;-60
2023/07/12 11:30:23;;;;;;;4.93;1.00;;;23.50;69.60;;;;;;5067750;28;20036;-60
2023/07/12 11:32:57;;;;;;;2.30;1.02;;;23.40;67.70;;;;;;5077090;28;20474;-60
2023/07/12 11:35:56;;;;;;;1.17;0.80;;;23.30;68.00;;;;;;5078463;28;20025;-60
2023/07/12 11:38:36;;;;;;;1.38;0.98;;;23.10;67.80;;;;;;5062915;28;20020;-60
2023/07/12 11:41:14;;;;;;;1.83;1.00;;;23.20;68.40;;;;;;5072574;28;20021;-60
2023/07/12 11:43:40;;;;;;;1.17;1.08;;;23.20;67.00;;;;;;5069445;28;20020;-60
2023/07/12 11:46:23;;;;;;;2.70;1.33;;;23.40;67.40;;;;;;5076275;28;20020;-60
2023/07/12 11:48:54;;;;;;;1.30;0.93;;;23.80;66.20;;;;;;5066021;28;20062;-60
2023/07/12 11:51:35;;;;;;;4.20;1.52;;;24.10;64.30;;;;;;5076934;28;20033;-60
2023/07/12 11:54:14;;;;;;;1.53;1.03;;;24.40;63.00;;;;;;5065865;28;20537;-63
2023/07/12 11:56:44;;;;;;;3.65;1.52;;;24.50;61.10;;;;;;5072773;28;20644;-63
2023/07/12 11:59:22;;;;;;;1.13;0.80;;;24.70;61.00;;;;;;5072798;28;20131;-63
2023/07/12 12:01:50;;;;;;;1.33;0.90;;;24.80;61.10;;;;;;5070338;28;20040;-63
2023/07/12 12:04:28;;;;;;;3.47;1.05;;;25.00;61.10;;;;;;5068258;28;20450;-63
2023/07/12 12:07:26;;;;;;;2.65;1.05;;;25.30;59.10;;;;;;5068669;28;20024;-63
2023/07/12 12:09:53;;;;;;;1.20;0.85;;;25.30;57.40;;;;;;5064273;28;20077;-63
2023/07/12 12:12:26;;;;;;;1.45;1.00;;;25.30;57.20;;;;;;5065661;28;20032;-63
2023/07/12 12:14:52;;;;;;;4.63;1.48;;;25.30;57.10;;;;;;5077237;28;20129;-63
2023/07/12 12:17:29;;;;;;;2.92;1.48;;;25.40;56.80;;;;;;5061608;28;20905;-63
2023/07/12 12:20:25;;;;;;;2.75;1.05;;;25.50;57.10;;;;;;5080978;28;20037;-64
2023/07/12 12:23:14;;;;;;;3.80;1.52;;;25.80;56.20;;;;;;5067275;28;20440;-63
2023/07/12 12:25:47;;;;;;;1.42;0.80;;;26.00;55.40;;;;;;5069441;28;20020;-60
2023/07/12 12:28:35;;;;;;;0.70;0.70;;;26.00;55.70;;;;;;5067496;28;20024;-60
2023/07/12 12:31:18;;;;;;;0.88;0.80;;;26.20;55.50;;;;;;5071591;28;20103;-60
2023/07/12 12:33:47;;;;;;;1.35;0.80;;;26.20;53.50;;;;;;5068016;28;20030;-60
2023/07/12 12:36:24;;;;;;;0.80;0.80;;;26.30;54.50;;;;;;5068462;28;20078;-60
2023/07/12 12:39:06;;;;;;;2.15;0.80;;;26.40;54.20;;;;;;5071688;28;20024;-60
2023/07/12 12:41:40;;;;;;;0.75;0.75;;;26.60;53.80;;;;;;5071510;28;20121;-60
2023/07/12 12:44:12;;;;;;;0.95;0.70;;;26.70;53.90;;;;;;5072776;28;20454;-60
2023/07/12 12:46:40;;;;;;;0.75;0.75;;;26.80;52.10;;;;;;5074380;28;20126;-60
2023/07/12 12:49:26;;;;;;;0.80;0.75;;;26.80;52.40;;;;;;5066563;28;20032;-61
2023/07/12 12:51:55;;;;;;;0.50;0.50;;;27.00;52.80;;;;;;5070221;28;20383;-61
2023/07/12 12:54:21;;;;;;;1.05;0.93;;;27.20;53.00;;;;;;5070560;28;20020;-60
2023/07/12 12:56:47;;;;;;;1.45;0.70;;;27.50;52.10;;;;;;5070369;28;20041;-60
2023/07/12 12:59:15;;;;;;;1.50;0.88;;;27.50;51.10;;;;;;5074210;28;20434;-64